createdAt,value
2022-11-28T00:01:31.491Z,6.93
2022-11-28T00:03:58.729Z,7.22
2022-11-28T00:06:26.889Z,7.20
2022-11-28T00:08:54.324Z,7.10
2022-11-28T00:11:21.689Z,5.78
2022-11-28T00:13:48.970Z,6.85
2022-11-28T00:16:21.576Z,5.95
2022-11-28T00:18:53.861Z,5.63
2022-11-28T00:21:21.330Z,7.47
2022-11-28T00:23:49.016Z,5.72
2022-11-28T00:26:24.801Z,5.78
2022-11-28T00:28:52.068Z,3.85
2022-11-28T00:31:22.827Z,6.20
2022-11-28T00:33:50.078Z,5.68
2022-11-28T00:36:17.427Z,6.22
2022-11-28T00:38:44.849Z,3.85
2022-11-28T00:41:16.271Z,5.72
2022-11-28T00:43:44.663Z,6.50
2022-11-28T00:46:13.095Z,4.45
2022-11-28T00:48:40.498Z,7.25
2022-11-28T00:51:10.156Z,6.30
2022-11-28T00:53:37.532Z,6.35
2022-11-28T00:56:06.037Z,7.23
2022-11-28T00:58:34.135Z,5.30
2022-11-28T01:01:07.208Z,6.07
2022-11-28T01:03:34.436Z,6.95
2022-11-28T01:06:01.643Z,7.20
2022-11-28T01:08:28.402Z,5.00
2022-11-28T01:10:55.226Z,4.50
2022-11-28T01:13:22.435Z,5.18
2022-11-28T01:15:49.694Z,6.22
2022-11-28T01:18:16.984Z,5.55
2022-11-28T01:20:44.190Z,5.73
2022-11-28T01:23:11.440Z,5.20
2022-11-28T01:25:38.471Z,6.00
2022-11-28T01:28:05.447Z,5.72
2022-11-28T01:30:33.411Z,6.57
2022-11-28T01:33:00.628Z,7.03
2022-11-28T01:35:27.846Z,6.65
2022-11-28T01:37:55.023Z,5.38
2022-11-28T01:40:22.591Z,6.68
2022-11-28T01:42:49.780Z,5.93
2022-11-28T01:45:27.844Z,7.00
2022-11-28T01:48:00.150Z,7.47
2022-11-28T01:50:28.579Z,4.78
2022-11-28T01:52:59.925Z,7.72
2022-11-28T01:55:32.722Z,6.57
2022-11-28T01:57:59.922Z,6.93
2022-11-28T02:00:27.188Z,6.97
2022-11-28T02:03:03.496Z,5.13
2022-11-28T02:05:30.670Z,5.18
2022-11-28T02:07:57.946Z,7.47
2022-11-28T02:10:43.890Z,6.63
2022-11-28T02:13:26.251Z,5.22
2022-11-28T02:15:53.486Z,7.10
2022-11-28T02:18:29.268Z,6.85
2022-11-28T02:21:12.208Z,6.15
2022-11-28T02:23:39.367Z,5.43
2022-11-28T02:26:30.868Z,5.80
2022-11-28T02:29:24.003Z,5.82
2022-11-28T02:32:09.894Z,6.93
2022-11-28T02:34:47.029Z,5.40
2022-11-28T02:37:22.807Z,6.53
2022-11-28T02:40:10.833Z,6.38
2022-11-28T02:42:38.053Z,6.90
2022-11-28T02:45:05.236Z,6.35
2022-11-28T02:47:40.901Z,4.75
2022-11-28T02:50:26.568Z,5.73
2022-11-28T02:53:05.437Z,7.38
2022-11-28T02:55:32.507Z,6.57
2022-11-28T02:57:59.644Z,6.25
2022-11-28T03:00:35.915Z,7.07
2022-11-28T03:03:23.677Z,5.50
2022-11-28T03:06:08.342Z,6.75
2022-11-28T03:08:56.093Z,7.65
2022-11-28T03:11:54.792Z,6.43
2022-11-28T03:14:53.604Z,6.80
2022-11-28T03:18:03.028Z,6.90
2022-11-28T03:20:42.190Z,6.15
2022-11-28T03:23:42.687Z,6.55
2022-11-28T03:26:24.940Z,4.55
2022-11-28T03:29:01.853Z,7.15
2022-11-28T03:31:39.590Z,7.20
2022-11-28T03:34:11.005Z,5.28
2022-11-28T03:37:02.934Z,7.18
2022-11-28T03:39:34.376Z,4.70
2022-11-28T03:42:10.678Z,6.03
2022-11-28T03:44:49.660Z,5.80
2022-11-28T03:47:16.996Z,7.82
2022-11-28T03:49:50.987Z,7.47
2022-11-28T03:52:46.472Z,5.57
2022-11-28T03:55:24.712Z,5.70
2022-11-28T03:58:13.792Z,7.47
2022-11-28T04:00:51.399Z,6.78
2022-11-28T04:03:33.834Z,7.13
2022-11-28T04:06:11.680Z,5.30
2022-11-28T04:08:48.524Z,7.85
2022-11-28T04:11:22.808Z,7.30
2022-11-28T04:13:56.135Z,8.20
2022-11-28T04:16:31.216Z,7.68
2022-11-28T04:19:13.318Z,6.97
2022-11-28T04:22:10.555Z,8.45
2022-11-28T04:24:59.888Z,7.53
2022-11-28T04:27:37.762Z,8.13
2022-11-28T04:30:06.515Z,7.63
2022-11-28T04:32:37.001Z,8.50
2022-11-28T04:35:16.078Z,8.23
2022-11-28T04:37:48.627Z,7.87
2022-11-28T04:40:18.501Z,7.50
2022-11-28T04:42:53.355Z,8.18
2022-11-28T04:45:58.375Z,8.15
2022-11-28T04:48:27.650Z,7.68
2022-11-28T04:50:58.411Z,9.10
2022-11-28T04:53:30.090Z,7.07
2022-11-28T04:56:01.779Z,7.70
2022-11-28T04:58:35.480Z,8.10
2022-11-28T05:01:06.369Z,8.13
2022-11-28T05:03:33.694Z,9.30
2022-11-28T05:06:02.045Z,8.73
2022-11-28T05:08:29.299Z,8.77
2022-11-28T05:10:56.188Z,7.03
2022-11-28T05:13:23.430Z,7.65
2022-11-28T05:15:50.139Z,7.90
2022-11-28T05:18:17.395Z,8.13
2022-11-28T05:20:44.785Z,6.05
2022-11-28T05:23:11.967Z,8.02
2022-11-28T05:25:40.058Z,8.32
2022-11-28T05:28:06.876Z,7.37
2022-11-28T05:30:34.109Z,6.30
2022-11-28T05:33:02.113Z,9.30
2022-11-28T05:35:29.359Z,9.95
2022-11-28T05:37:56.614Z,9.10
2022-11-28T05:40:23.906Z,9.87
2022-11-28T05:42:51.146Z,8.25
2022-11-28T05:45:18.354Z,5.22
2022-11-28T05:47:45.520Z,5.78
2022-11-28T05:50:12.728Z,6.45
2022-11-28T05:52:39.872Z,9.87
2022-11-28T05:55:07.355Z,9.40
2022-11-28T05:57:34.585Z,9.07
2022-11-28T06:00:01.432Z,9.07
2022-11-28T06:02:39.009Z,8.82
2022-11-28T06:05:27.132Z,7.63
2022-11-28T06:07:53.876Z,8.32
2022-11-28T06:10:22.487Z,8.90
2022-11-28T06:12:49.480Z,9.60
2022-11-28T06:15:16.878Z,8.55
2022-11-28T06:17:44.086Z,9.03
2022-11-28T06:20:11.299Z,8.68
2022-11-28T06:22:38.590Z,8.20
2022-11-28T06:25:05.796Z,9.45
2022-11-28T06:27:34.972Z,7.57
2022-11-28T06:30:01.755Z,10.33
2022-11-28T06:32:28.955Z,9.43
2022-11-28T06:34:56.315Z,9.38
2022-11-28T06:37:23.606Z,9.43
2022-11-28T06:39:51.280Z,8.93
2022-11-28T06:42:19.920Z,9.17
2022-11-28T06:44:46.704Z,9.35
2022-11-28T06:47:14.008Z,8.88
2022-11-28T06:49:41.631Z,9.60
2022-11-28T06:52:09.064Z,9.75
2022-11-28T06:54:36.264Z,10.27
2022-11-28T06:57:03.473Z,9.75
2022-11-28T06:59:30.641Z,9.70
2022-11-28T07:02:06.948Z,10.15
2022-11-28T07:04:34.935Z,8.82
2022-11-28T07:07:02.140Z,11.00
2022-11-28T07:09:29.075Z,10.68
2022-11-28T07:11:55.944Z,10.38
2022-11-28T07:14:23.985Z,9.88
2022-11-28T07:16:51.240Z,11.32
2022-11-28T07:19:22.774Z,10.97
2022-11-28T07:21:50.512Z,11.38
2022-11-28T07:24:18.979Z,12.57
2022-11-28T07:26:46.642Z,11.13
2022-11-28T07:29:18.287Z,11.20
2022-11-28T07:31:45.894Z,12.10
2022-11-28T07:34:13.274Z,9.85
2022-11-28T07:36:40.269Z,12.75
2022-11-28T07:39:10.937Z,11.65
2022-11-28T07:41:37.824Z,12.25
2022-11-28T07:44:05.407Z,18.13
2022-11-28T07:46:34.128Z,12.77
2022-11-28T07:49:01.807Z,12.18
2022-11-28T07:51:31.412Z,13.07
2022-11-28T07:53:59.943Z,9.15
2022-11-28T07:56:56.703Z,12.30
2022-11-28T07:59:17.132Z,12.55
2022-11-28T08:01:44.436Z,12.52
2022-11-28T08:04:11.762Z,13.98
2022-11-28T08:06:40.848Z,12.50
2022-11-28T08:09:08.526Z,12.17
2022-11-28T08:11:36.028Z,11.05
2022-11-28T08:14:03.436Z,11.38
2022-11-28T08:16:30.783Z,12.35
2022-11-28T08:19:00.195Z,13.50
2022-11-28T08:21:29.482Z,12.93
2022-11-28T08:23:58.611Z,12.23
2022-11-28T08:26:30.384Z,13.07
2022-11-28T08:28:58.280Z,12.82
2022-11-28T08:31:37.394Z,13.63
2022-11-28T08:34:07.880Z,12.17
2022-11-28T08:36:35.127Z,13.15
2022-11-28T08:39:32.798Z,15.23
2022-11-28T08:41:51.380Z,13.07
2022-11-28T08:44:18.657Z,13.73
2022-11-28T08:46:45.890Z,13.10
2022-11-28T08:49:13.151Z,13.30
2022-11-28T08:51:40.318Z,14.50
2022-11-28T08:54:07.616Z,14.02
2022-11-28T08:56:34.962Z,14.57
2022-11-28T08:59:02.202Z,14.40
2022-11-28T09:01:29.748Z,14.05
2022-11-28T09:03:57.199Z,14.65
2022-11-28T09:06:24.921Z,12.75
2022-11-28T09:08:52.430Z,15.00
2022-11-28T09:11:20.800Z,16.50
2022-11-28T09:13:48.024Z,14.68
2022-11-28T09:16:15.717Z,16.15
2022-11-28T09:18:43.129Z,15.93
2022-11-28T09:21:12.761Z,15.98
2022-11-28T09:23:43.723Z,16.30
2022-11-28T09:26:12.327Z,16.98
2022-11-28T09:28:39.183Z,17.63
2022-11-28T09:31:07.651Z,16.88
2022-11-28T09:33:35.714Z,17.98
2022-11-28T09:36:10.672Z,17.17
2022-11-28T09:38:38.264Z,16.27
2022-11-28T09:41:37.009Z,18.13
2022-11-28T09:44:14.142Z,15.13
2022-11-28T09:46:42.224Z,17.48
2022-11-28T09:49:43.517Z,16.47
2022-11-28T09:52:26.607Z,16.42
2022-11-28T09:55:09.979Z,16.30
2022-11-28T09:57:56.452Z,17.95
2022-11-28T10:00:35.701Z,18.00
2022-11-28T10:03:37.396Z,17.90
2022-11-28T10:06:16.608Z,18.02
2022-11-28T10:08:49.407Z,16.73
2022-11-28T10:11:45.245Z,19.25
2022-11-28T10:14:27.177Z,16.55
2022-11-28T10:16:54.408Z,18.40
2022-11-28T10:19:53.363Z,18.35
2022-11-28T10:22:29.583Z,18.77
2022-11-28T10:24:59.641Z,18.60
2022-11-28T10:27:35.348Z,20.20
2022-11-28T10:30:07.596Z,20.50
2022-11-28T10:32:44.433Z,18.17
2022-11-28T10:35:48.971Z,19.88
2022-11-28T10:38:16.866Z,20.58
2022-11-28T10:41:04.373Z,17.65
2022-11-28T10:43:37.357Z,19.17
2022-11-28T10:46:24.016Z,18.92
2022-11-28T10:49:04.570Z,12.98
2022-11-28T10:52:09.218Z,18.95
2022-11-28T10:55:08.131Z,21.77
2022-11-28T10:58:05.286Z,21.17
2022-11-28T11:00:34.147Z,18.45
2022-11-28T11:03:02.390Z,19.40
2022-11-28T11:05:35.040Z,19.40
2022-11-28T11:08:20.024Z,20.02
2022-11-28T11:11:02.717Z,19.47
2022-11-28T11:13:32.336Z,18.10
2022-11-28T11:16:07.662Z,19.25
2022-11-28T11:18:37.691Z,19.83
2022-11-28T11:21:17.924Z,18.17
2022-11-28T11:23:46.019Z,16.23
2022-11-28T11:26:34.042Z,14.80
2022-11-28T11:29:02.270Z,17.40
2022-11-28T11:31:43.494Z,16.63
2022-11-28T11:34:17.014Z,18.20
2022-11-28T11:36:44.671Z,15.00
2022-11-28T11:39:12.342Z,15.30
2022-11-28T11:42:04.233Z,15.75
2022-11-28T11:44:34.826Z,15.57
2022-11-28T11:47:08.136Z,15.55
2022-11-28T11:49:47.882Z,14.37
2022-11-28T11:52:23.232Z,15.57
2022-11-28T11:55:12.641Z,15.82
2022-11-28T11:58:05.500Z,16.73
2022-11-28T12:00:38.863Z,16.67
2022-11-28T12:03:29.190Z,15.70
2022-11-28T12:06:13.647Z,15.35
2022-11-28T12:08:50.572Z,15.65
2022-11-28T12:11:17.805Z,16.85
2022-11-28T12:13:45.119Z,18.02
2022-11-28T12:16:46.955Z,16.80
2022-11-28T12:19:38.622Z,16.75
2022-11-28T12:22:24.227Z,16.98
2022-11-28T12:25:05.079Z,17.70
2022-11-28T12:27:42.980Z,17.83
2022-11-28T12:30:20.172Z,17.80
2022-11-28T12:32:52.801Z,18.33
2022-11-28T12:35:37.912Z,17.73
2022-11-28T12:38:20.259Z,17.90
2022-11-28T12:40:56.341Z,18.55
2022-11-28T12:43:42.700Z,17.70
2022-11-28T12:46:31.204Z,16.95
2022-11-28T12:49:38.954Z,18.80
2022-11-28T12:52:30.007Z,18.33
2022-11-28T12:55:21.264Z,17.70
2022-11-28T12:58:19.568Z,18.53
2022-11-28T13:01:06.908Z,18.13
2022-11-28T13:03:34.176Z,19.02
2022-11-28T13:06:27.139Z,18.65
2022-11-28T13:09:06.482Z,17.48
2022-11-28T13:11:45.886Z,18.27
2022-11-28T13:14:52.815Z,17.48
2022-11-28T13:17:40.948Z,19.20
2022-11-28T13:20:08.386Z,18.77
2022-11-28T13:22:50.695Z,17.95
2022-11-28T13:25:40.279Z,18.67
2022-11-28T13:28:17.943Z,17.85
2022-11-28T13:30:52.115Z,18.20
2022-11-28T13:33:57.715Z,17.33
2022-11-28T13:39:30.109Z,16.83
2022-11-28T13:42:52.475Z,16.63
2022-11-28T13:45:02.870Z,16.05
2022-11-28T13:47:34.571Z,15.20
2022-11-28T13:50:23.166Z,15.32
2022-11-28T13:53:10.926Z,15.40
2022-11-28T13:55:46.619Z,15.07
2022-11-28T13:58:32.770Z,16.05
2022-11-28T14:01:08.840Z,15.15
2022-11-28T14:04:01.287Z,14.77
2022-11-28T14:06:31.254Z,17.37
2022-11-28T14:09:12.255Z,15.23
2022-11-28T14:12:04.899Z,16.65
2022-11-28T14:14:32.263Z,15.57
2022-11-28T14:17:01.098Z,14.68
2022-11-28T14:19:46.299Z,15.20
2022-11-28T14:22:49.808Z,15.32
2022-11-28T14:25:24.814Z,15.38
2022-11-28T14:27:55.395Z,15.68
2022-11-28T14:30:45.055Z,15.13
2022-11-28T14:33:26.821Z,16.37
2022-11-28T14:35:54.032Z,16.50
2022-11-28T14:38:30.044Z,16.27
2022-11-28T14:41:03.125Z,16.45
2022-11-28T14:43:31.502Z,16.10
2022-11-28T14:46:20.260Z,17.10
2022-11-28T14:49:00.802Z,17.35
2022-11-28T14:51:45.871Z,18.63
2022-11-28T14:54:22.607Z,17.05
2022-11-28T14:56:56.631Z,18.50
2022-11-28T14:59:38.417Z,17.20
2022-11-28T15:02:26.198Z,20.50
2022-11-28T15:05:21.039Z,17.27
2022-11-28T15:07:57.621Z,28.15
2022-11-28T15:10:40.292Z,20.50
2022-11-28T15:13:28.500Z,16.53
2022-11-28T15:15:55.439Z,15.93
2022-11-28T15:18:24.955Z,17.67
2022-11-28T15:21:03.135Z,17.75
2022-11-28T15:23:38.505Z,18.90
2022-11-28T15:26:06.999Z,19.27
2022-11-28T15:28:36.011Z,20.17
2022-11-28T15:31:07.371Z,17.13
2022-11-28T15:33:34.792Z,17.38
2022-11-28T15:36:04.115Z,17.90
2022-11-28T15:38:31.930Z,18.33
2022-11-28T15:41:00.465Z,17.08
2022-11-28T15:43:30.685Z,17.80
2022-11-28T15:46:00.893Z,17.48
2022-11-28T15:48:39.827Z,18.65
2022-11-28T15:51:08.251Z,17.20
2022-11-28T15:53:42.301Z,20.10
2022-11-28T15:56:15.279Z,19.48
2022-11-28T15:58:44.577Z,18.60
2022-11-28T16:01:24.310Z,18.35
2022-11-28T16:04:16.959Z,18.43
2022-11-28T16:06:49.607Z,31.13
2022-11-28T16:09:19.556Z,23.52
2022-11-28T16:11:52.083Z,21.23
2022-11-28T16:14:29.926Z,19.45
2022-11-28T16:17:02.318Z,19.17
2022-11-28T16:19:32.760Z,21.58
2022-11-28T16:22:06.090Z,20.85
2022-11-28T16:24:49.550Z,20.95
2022-11-28T16:27:41.666Z,19.63
2022-11-28T16:30:25.152Z,20.90
2022-11-28T16:32:53.814Z,20.08
2022-11-28T16:35:33.827Z,21.42
2022-11-28T16:38:23.890Z,23.13
2022-11-28T16:40:51.984Z,28.05
2022-11-28T16:43:39.396Z,26.43
2022-11-28T16:46:17.570Z,23.35
2022-11-28T16:48:59.402Z,20.95
2022-11-28T16:51:26.156Z,21.48
2022-11-28T16:53:59.561Z,22.50
2022-11-28T16:56:29.342Z,21.87
2022-11-28T16:59:12.322Z,21.98
2022-11-28T17:01:39.872Z,24.85
2022-11-28T17:04:07.070Z,25.63
2022-11-28T17:06:37.666Z,22.60
2022-11-28T17:09:09.239Z,21.00
2022-11-28T17:11:37.825Z,21.45
2022-11-28T17:14:10.117Z,22.13
2022-11-28T17:16:40.801Z,21.83
2022-11-28T17:19:08.129Z,20.13
2022-11-28T17:21:47.955Z,21.10
2022-11-28T17:24:21.133Z,29.55
2022-11-28T17:26:48.738Z,31.23
2022-11-28T17:29:16.218Z,28.88
2022-11-28T17:31:46.763Z,27.38
2022-11-28T17:34:23.204Z,22.90
2022-11-28T17:36:51.170Z,21.35
2022-11-28T17:39:18.780Z,21.92
2022-11-28T17:41:47.010Z,22.63
2022-11-28T17:44:29.135Z,20.48
2022-11-28T17:46:58.072Z,22.20
2022-11-28T17:49:25.690Z,20.50
2022-11-28T17:51:55.148Z,19.58
2022-11-28T17:54:24.946Z,20.95
2022-11-28T17:56:55.552Z,20.00
2022-11-28T17:59:24.566Z,21.57
2022-11-28T18:01:51.925Z,20.83
2022-11-28T18:04:24.108Z,20.23
2022-11-28T18:06:51.535Z,21.33
2022-11-28T18:09:18.726Z,21.65
2022-11-28T18:11:46.794Z,24.57
2022-11-28T18:14:14.224Z,21.23
2022-11-28T18:16:43.901Z,21.35
2022-11-28T18:19:11.568Z,20.90
2022-11-28T18:21:39.293Z,20.92
2022-11-28T18:24:06.471Z,22.57
2022-11-28T18:26:33.948Z,22.50
2022-11-28T18:29:01.288Z,22.27
2022-11-28T18:31:29.204Z,23.27
2022-11-28T18:34:02.022Z,22.40
2022-11-28T18:36:34.528Z,23.60
2022-11-28T18:39:04.421Z,21.83
2022-11-28T18:41:31.783Z,21.73
2022-11-28T18:44:01.531Z,23.38
2022-11-28T18:46:29.443Z,19.98
2022-11-28T18:48:57.097Z,21.07
2022-11-28T18:51:24.511Z,21.67
2022-11-28T18:53:53.293Z,23.58
2022-11-28T18:56:21.012Z,23.02
2022-11-28T18:58:51.865Z,22.00
2022-11-28T19:01:20.111Z,24.17
2022-11-28T19:04:15.581Z,25.45
2022-11-28T19:06:44.364Z,23.35
2022-11-28T19:09:13.749Z,25.05
2022-11-28T19:11:41.700Z,24.02
2022-11-28T19:14:10.129Z,21.70
2022-11-28T19:16:38.002Z,19.42
2022-11-28T19:19:06.116Z,21.75
2022-11-28T19:21:35.933Z,21.25
2022-11-28T19:24:03.574Z,21.80
2022-11-28T19:26:33.400Z,20.83
2022-11-28T19:29:01.836Z,21.75
2022-11-28T19:31:31.230Z,19.42
2022-11-28T19:34:04.607Z,19.83
2022-11-28T19:36:37.654Z,21.70
2022-11-28T19:39:05.192Z,18.93
2022-11-28T19:41:33.351Z,19.83
2022-11-28T19:44:01.865Z,20.80
2022-11-28T19:46:35.026Z,19.73
2022-11-28T19:49:04.732Z,20.67
2022-11-28T19:51:31.992Z,18.60
2022-11-28T19:54:03.161Z,18.50
2022-11-28T19:56:32.455Z,18.98
2022-11-28T19:59:00.144Z,18.50
2022-11-28T20:01:28.683Z,18.75
2022-11-28T20:03:56.107Z,19.13
2022-11-28T20:06:28.854Z,18.80
2022-11-28T20:08:58.939Z,19.15
2022-11-28T20:11:29.330Z,20.50
2022-11-28T20:14:04.096Z,20.15
2022-11-28T20:16:32.542Z,19.93
2022-11-28T20:19:01.007Z,18.02
2022-11-28T20:21:29.521Z,19.45
2022-11-28T20:24:04.112Z,20.58
2022-11-28T20:26:34.890Z,20.00
2022-11-28T20:29:03.927Z,18.70
2022-11-28T20:31:46.387Z,20.63
2022-11-28T20:34:17.500Z,20.35
2022-11-28T20:36:45.643Z,18.60
2022-11-28T20:39:13.532Z,21.20
2022-11-28T20:41:40.413Z,19.80
2022-11-28T20:44:08.197Z,23.10
2022-11-28T20:46:35.672Z,21.48
2022-11-28T20:49:05.492Z,22.30
2022-11-28T20:51:34.471Z,19.70
2022-11-28T20:54:01.976Z,21.30
2022-11-28T20:56:31.745Z,22.75
2022-11-28T20:59:00.681Z,23.63
2022-11-28T21:01:30.985Z,24.15
2022-11-28T21:03:59.879Z,23.67
2022-11-28T21:06:27.059Z,24.57
2022-11-28T21:08:54.408Z,23.58
2022-11-28T21:11:50.516Z,22.80
2022-11-28T21:14:10.745Z,26.13
2022-11-28T21:16:37.972Z,21.73
2022-11-28T21:19:07.627Z,26.63
2022-11-28T21:21:36.603Z,23.45
2022-11-28T21:24:06.837Z,23.88
2022-11-28T21:26:40.892Z,23.00
2022-11-28T21:29:11.867Z,23.00
2022-11-28T21:31:42.942Z,25.27
2022-11-28T21:34:14.362Z,24.13
2022-11-28T21:36:42.207Z,23.75
2022-11-28T21:39:16.476Z,22.92
2022-11-28T21:41:43.689Z,24.50
2022-11-28T21:44:10.970Z,24.33
2022-11-28T21:46:38.355Z,27.52
2022-11-28T21:49:05.709Z,26.15
2022-11-28T21:51:37.298Z,25.10
2022-11-28T21:54:04.640Z,25.65
2022-11-28T21:56:31.414Z,27.13
2022-11-28T21:58:58.885Z,24.60
2022-11-28T22:01:26.170Z,24.73
2022-11-28T22:03:59.040Z,26.67
2022-11-28T22:06:29.646Z,25.80
2022-11-28T22:08:57.408Z,27.27
2022-11-28T22:11:24.986Z,23.00
2022-11-28T22:13:52.887Z,28.20
2022-11-28T22:16:28.399Z,26.25
2022-11-28T22:18:59.514Z,25.13
2022-11-28T22:24:14.218Z,24.23
2022-11-28T22:26:41.809Z,25.95
2022-11-28T22:29:09.056Z,26.15
2022-11-28T22:31:36.004Z,24.70
2022-11-28T22:34:03.422Z,24.20
2022-11-28T22:36:32.056Z,24.33
2022-11-28T22:38:59.430Z,25.95
2022-11-28T22:41:29.345Z,24.17
2022-11-28T22:44:01.178Z,25.80
2022-11-28T22:46:30.012Z,27.53
2022-11-28T22:49:00.247Z,22.17
2022-11-28T22:51:28.288Z,21.95
2022-11-28T22:53:57.770Z,23.27
2022-11-28T22:56:27.827Z,22.88
2022-11-28T22:58:55.155Z,22.73
2022-11-28T23:01:26.836Z,19.17
2022-11-28T23:03:54.731Z,26.33
2022-11-28T23:06:25.535Z,23.92
2022-11-28T23:08:56.128Z,21.63
2022-11-28T23:11:27.620Z,24.03
2022-11-28T23:13:55.239Z,22.90
2022-11-28T23:16:22.622Z,21.42
2022-11-28T23:18:51.541Z,22.75
2022-11-28T23:21:19.785Z,17.83
2022-11-28T23:23:47.402Z,22.10
2022-11-28T23:26:18.561Z,21.60
2022-11-28T23:28:46.196Z,24.98
2022-11-28T23:31:18.952Z,22.73
2022-11-28T23:33:46.518Z,23.92
2022-11-28T23:36:29.216Z,17.47
2022-11-28T23:38:59.719Z,25.60
2022-11-28T23:41:27.830Z,24.55
2022-11-28T23:43:55.360Z,25.67
2022-11-28T23:46:23.463Z,29.67
2022-11-28T23:48:50.940Z,24.47
2022-11-28T23:51:19.436Z,22.33
2022-11-28T23:53:46.373Z,21.30
2022-11-28T23:56:15.363Z,17.75
2022-11-28T23:58:42.743Z,17.13
